Norwegian Getaway — C6ZJ4 — position and weather

sailwx.info

Track history (hours):
 
Tides and Currents Weather Stations Pressure Air Temp Water Temp Dewpoint Dewpoint Depression Visibility Wind Speed Wind Dir Waves Ship Positions

Norwegian Getaway

Last reported at 2017-Sep-20 00:31 UTC. Time now 2017-Sep-20 00:34 UTC.
Position N 54°55' E 010°53'.

Length 326 m; draft 8.7 m.

Type: Passenger vessel. MMSI: 311050900.

Date/timePositionNaut miles runAvg speedWind from/ knotsBaromVisibWave heightAir tempDewpointWater temp
2017-Sep-20 00:31N 54°55' E 010°53'917.1
2017-Sep-20 00:00N 55°02' E 011°01'918.0
2017-Sep-19 23:30N 55°11' E 011°04'816.1
2017-Sep-19 22:59N 55°19' E 011°02'6113.2
2017-Sep-19 18:23N 56°10' E 011°59'718.1
2017-Sep-19 18:00N 56°12' E 012°11'917.1
2017-Sep-19 17:28N 56°10' E 012°27'918.7
2017-Sep-19 17:01N 56°04' E 012°38'917.4
2017-Sep-19 16:30N 55°56' E 012°44'917.9
2017-Sep-19 16:01N 55°47' E 012°42'5 9.8
2017-Sep-19 15:30N 55°43' E 012°37'0 0.3
2017-Sep-19 15:00N 55°43' E 012°37'0 0.0
2017-Sep-19 14:30N 55°43' E 012°37'0 0.0
2017-Sep-19 13:59N 55°43' E 012°37'0 0.0
2017-Sep-19 13:29N 55°43' E 012°37'0 0.0
2017-Sep-19 12:59N 55°43' E 012°37'0 0.0
2017-Sep-19 12:28N 55°43' E 012°37'0 0.0
2017-Sep-19 11:58N 55°43' E 012°37'0 0.0
2017-Sep-19 11:28N 55°43' E 012°37'0 0.0
2017-Sep-19 10:58N 55°43' E 012°37'0 0.0
2017-Sep-19 10:28N 55°43' E 012°37'0 0.0
2017-Sep-19 09:59N 55°43' E 012°37'0 0.0
2017-Sep-19 09:30N 55°43' E 012°37'0 0.0
2017-Sep-19 09:00N 55°43' E 012°37'0 0.0
2017-Sep-19 08:30N 55°43' E 012°37'0 0.0
2017-Sep-19 08:00N 55°43' E 012°37'0 0.0
2017-Sep-19 07:30N 55°43' E 012°37'0 0.0
2017-Sep-19 07:00N 55°43' E 012°37'0 0.0
2017-Sep-19 06:30N 55°43' E 012°37'0 0.0
2017-Sep-19 06:00N 55°43' E 012°37'0 0.0
2017-Sep-19 05:30N 55°43' E 012°37'0 0.0
2017-Sep-19 05:00N 55°43' E 012°37'0 0.0
2017-Sep-19 04:30N 55°43' E 012°37'0 0.0
2017-Sep-19 03:59N 55°43' E 012°37'0 0.6
2017-Sep-19 03:30N 55°43' E 012°38'4 7.1
2017-Sep-19 03:01N 55°46' E 012°41'714.0
2017-Sep-19 02:31N 55°53' E 012°39'714.3
2017-Sep-19 02:01N 56°00' E 012°40'612.9
2017-Sep-19 01:30N 56°06' E 012°34'714.4
2017-Sep-19 01:00N 56°10' E 012°24'6511.6
2017-Sep-18 19:26N 55°28' E 010°55'815.5
2017-Sep-18 18:56N 55°22' E 011°02'715.5
2017-Sep-18 18:29N 55°15' E 011°05'715.0
2017-Sep-18 17:59N 55°07' E 011°03'816.0
2017-Sep-18 17:30N 54°60' E 011°02'816.2
2017-Sep-18 17:01N 54°53' E 010°53'816.1
2017-Sep-18 16:31N 54°45' E 010°53'714.3
2017-Sep-18 16:01N 54°40' E 010°60'816.2
2017-Sep-18 15:31N 54°36' E 011°12'816.3
2017-Sep-18 15:00N 54°32' E 011°24'815.6
2017-Sep-18 14:30N 54°28' E 011°37'815.4
2017-Sep-18 14:01N 54°27' E 011°50'815.6
2017-Sep-18 13:30N 54°26' E 012°03'4314.7
2017-Sep-18 10:34N 54°52' E 013°03'3816.4
2017-Sep-18 08:16N 55°05' E 014°05'519.3
2017-Sep-18 08:00N 55°09' E 014°11'919.2
2017-Sep-18 07:30N 55°16' E 014°21'1019.3
2017-Sep-18 07:00N 55°24' E 014°31'1019.0
2017-Sep-18 06:30N 55°29' E 014°46'1019.3
2017-Sep-18 05:59N 55°33' E 015°01'919.3
2017-Sep-18 05:30N 55°38' E 015°16'1019.3
2017-Sep-18 05:00N 55°43' E 015°31'1019.3
2017-Sep-18 04:30N 55°48' E 015°45'1019.5
2017-Sep-18 04:00N 55°53' E 016°00'1019.7
2017-Sep-18 03:30N 55°58' E 016°15'1019.6
2017-Sep-18 03:01N 56°02' E 016°31'16918.6
2017-Sep-17 17:56N 58°45' E 017°54'715.3
2017-Sep-17 17:27N 58°52' E 018°00'3 7.4
2017-Sep-17 17:00N 58°55' E 017°59'1 1.2
2017-Sep-17 16:28N 58°55' E 017°58'0 0.0
2017-Sep-17 16:00N 58°55' E 017°58'0 0.0
2017-Sep-17 15:30N 58°55' E 017°58'0 0.0
2017-Sep-17 14:58N 58°55' E 017°58'0 0.0
2017-Sep-17 14:28N 58°55' E 017°58'0 0.0
2017-Sep-17 14:00N 58°55' E 017°58'0 0.0
2017-Sep-17 13:30N 58°55' E 017°58'0 0.0
2017-Sep-17 12:59N 58°55' E 017°58'0 0.0
2017-Sep-17 12:28N 58°55' E 017°58'0 0.0
2017-Sep-17 11:58N 58°55' E 017°58'0 0.0
2017-Sep-17 11:28N 58°55' E 017°58'0 0.0
2017-Sep-17 10:59N 58°55' E 017°58'0 0.0
2017-Sep-17 10:29N 58°55' E 017°58'0 0.0
2017-Sep-17 09:59N 58°55' E 017°58'0 0.0
2017-Sep-17 09:29N 58°55' E 017°58'0 0.0
2017-Sep-17 08:59N 58°55' E 017°58'0 0.0
2017-Sep-17 08:29N 58°55' E 017°58'0 0.0
2017-Sep-17 07:58N 58°55' E 017°58'0 0.0
2017-Sep-17 07:28N 58°55' E 017°58'0 0.0
2017-Sep-17 06:55N 58°55' E 017°58'0 0.0
2017-Sep-17 06:28N 58°55' E 017°58'0 0.0
2017-Sep-17 05:58N 58°55' E 017°58'0 0.0
2017-Sep-17 05:28N 58°55' E 017°58'0 0.0
2017-Sep-17 04:58N 58°55' E 017°58'0 0.0
2017-Sep-17 04:31N 58°55' E 017°58'1 2.3
2017-Sep-17 04:01N 58°55' E 017°60'5 9.6
2017-Sep-17 03:30N 58°51' E 018°04'711.8
2017-Sep-17 02:57N 58°45' E 018°11'714.1
2017-Sep-17 02:27N 58°46' E 018°24'10015.9
2017-Sep-16 20:13N 59°17' E 021°27'5318.5
2017-Sep-16 17:21N 59°36' E 023°05'618.0
2017-Sep-16 17:00N 59°37' E 023°17'917.7
2017-Sep-16 16:30N 59°40' E 023°34'917.9
2017-Sep-16 16:00N 59°43' E 023°51'1117.9
2017-Sep-16 15:24N 59°46' E 024°11'717.7
2017-Sep-16 15:01N 59°48' E 024°24'55 3.7
2017-Sep-16 00:14N 59°59' E 026°12'417.6
2017-Sep-16 00:00N 59°60' E 026°20'917.4
2017-Sep-15 23:30N 60°01' E 026°37'917.8
2017-Sep-15 23:00N 59°60' E 026°55'917.1
2017-Sep-15 22:30N 60°02' E 027°12'917.9
2017-Sep-15 22:00N 60°07' E 027°26'917.9
2017-Sep-15 21:30N 60°11' E 027°42'817.0
2017-Sep-15 21:00N 60°10' E 027°59'918.0
2017-Sep-15 20:31N 60°08' E 028°16'917.7
2017-Sep-15 20:00N 60°03' E 028°31'917.8
2017-Sep-15 19:30N 60°03' E 028°49'2016.0
2017-Sep-15 18:17N 60°02' E 029°28'910.2
2017-Sep-15 17:23N 59°59' E 029°46'610.6
2017-Sep-15 16:51N 59°56' E 029°56'410.2
2017-Sep-15 16:30N 59°56' E 030°03'4 8.0
2017-Sep-15 16:00N 59°57' E 030°11'0 0.1
2017-Sep-15 15:22N 59°57' E 030°11'0 0.0
2017-Sep-15 14:58N 59°57' E 030°11'0 0.0
2017-Sep-15 14:30N 59°57' E 030°11'0 0.0
2017-Sep-15 13:59N 59°57' E 030°11'0 0.0
2017-Sep-15 13:28N 59°57' E 030°11'0 0.0
2017-Sep-15 12:58N 59°57' E 030°11'0 0.0
2017-Sep-15 12:28N 59°57' E 030°11'0 0.0
2017-Sep-15 11:58N 59°57' E 030°11'0 0.0
2017-Sep-15 11:28N 59°57' E 030°11'0 0.0
2017-Sep-15 11:00N 59°57' E 030°11'0 0.0
2017-Sep-15 10:29N 59°57' E 030°11'0 0.0
2017-Sep-15 09:59N 59°57' E 030°11'0 0.0
2017-Sep-15 09:25N 59°57' E 030°11'0 0.0
2017-Sep-15 08:58N 59°57' E 030°11'0 0.0
2017-Sep-15 08:28N 59°57' E 030°11'0 0.0
2017-Sep-15 07:58N 59°57' E 030°11'0 0.0
2017-Sep-15 07:30N 59°57' E 030°11'0 0.0
2017-Sep-15 07:00N 59°57' E 030°11'0 0.0
2017-Sep-15 06:29N 59°57' E 030°11'0 0.0
2017-Sep-15 05:59N 59°57' E 030°11'0 0.0
2017-Sep-15 05:29N 59°57' E 030°11'0 0.0
2017-Sep-15 04:59N 59°57' E 030°11'0 0.0
2017-Sep-15 04:29N 59°57' E 030°11'0 0.0
2017-Sep-15 03:58N 59°57' E 030°11'0 0.0
2017-Sep-15 03:25N 59°57' E 030°11'0 0.0
2017-Sep-15 02:58N 59°57' E 030°11'0 0.0
2017-Sep-15 02:30N 59°57' E 030°11'0 0.0
2017-Sep-15 02:00N 59°57' E 030°11'0 0.0
2017-Sep-15 01:30N 59°57' E 030°11'0 0.0
2017-Sep-15 01:00N 59°57' E 030°11'0 0.0
2017-Sep-15 00:27N 59°57' E 030°11'0 0.0
2017-Sep-15 00:00N 59°57' E 030°11'0 0.0
2017-Sep-14 23:30N 59°57' E 030°11'0 0.0
2017-Sep-14 23:00N 59°57' E 030°11'0 0.0
2017-Sep-14 22:30N 59°57' E 030°11'0 0.0
2017-Sep-14 22:00N 59°57' E 030°11'0 0.0
2017-Sep-14 21:30N 59°57' E 030°11'0 0.0
2017-Sep-14 21:00N 59°57' E 030°11'0 0.0
2017-Sep-14 20:30N 59°57' E 030°11'0 0.0
2017-Sep-14 19:57N 59°57' E 030°11'0 0.0
2017-Sep-14 19:30N 59°57' E 030°11'0 0.0
2017-Sep-14 18:57N 59°57' E 030°11'0 0.0
2017-Sep-14 18:30N 59°57' E 030°11'0 0.0
2017-Sep-14 18:00N 59°57' E 030°11'0 0.0
2017-Sep-14 17:25N 59°57' E 030°11'0 0.0
2017-Sep-14 16:58N 59°57' E 030°11'0 0.0
2017-Sep-14 16:30N 59°57' E 030°11'0 0.0
2017-Sep-14 16:00N 59°57' E 030°11'0 0.0
2017-Sep-14 15:30N 59°57' E 030°11'0 0.0
2017-Sep-14 14:54N 59°57' E 030°11'0 0.0
2017-Sep-14 14:30N 59°57' E 030°11'0 0.0
2017-Sep-14 13:56N 59°57' E 030°11'0 0.0
2017-Sep-14 13:26N 59°57' E 030°11'0 0.0
2017-Sep-14 12:58N 59°57' E 030°11'0 0.0
2017-Sep-14 12:30N 59°57' E 030°11'0 0.0
2017-Sep-14 12:00N 59°57' E 030°11'0 0.0
2017-Sep-14 11:30N 59°57' E 030°11'0 0.0
2017-Sep-14 10:59N 59°57' E 030°11'0 0.0
2017-Sep-14 10:28N 59°57' E 030°11'0 0.0
2017-Sep-14 09:58N 59°57' E 030°11'0 0.0
2017-Sep-14 09:30N 59°57' E 030°11'0 0.0
2017-Sep-14 08:57N 59°57' E 030°11'0 0.0
2017-Sep-14 08:27N 59°57' E 030°11'0 0.0
2017-Sep-14 08:00N 59°57' E 030°11'0 0.0
2017-Sep-14 07:30N 59°57' E 030°11'0 0.0
2017-Sep-14 06:58N 59°57' E 030°11'0 0.0
2017-Sep-14 06:29N 59°57' E 030°11'0 0.0
2017-Sep-14 05:58N 59°57' E 030°11'0 0.0
2017-Sep-14 05:28N 59°57' E 030°11'0 0.0
2017-Sep-14 04:58N 59°57' E 030°11'0 0.0
2017-Sep-14 04:31N 59°57' E 030°11'0 0.0
2017-Sep-14 03:58N 59°57' E 030°11'0 0.0
2017-Sep-14 03:30N 59°57' E 030°11'1 1.6
2017-Sep-14 03:00N 59°57' E 030°09'5 9.5
2017-Sep-14 02:30N 59°55' E 030°01'611.4
2017-Sep-14 02:00N 59°57' E 029°50'5 9.1
2017-Sep-14 01:30N 59°59' E 029°42'611.6
2017-Sep-14 01:00N 60°01' E 029°31'510.5
2017-Sep-14 00:30N 60°02' E 029°20'713.6
2017-Sep-14 00:00N 60°02' E 029°07'713.7
2017-Sep-13 23:30N 60°02' E 028°53'713.8
2017-Sep-13 23:00N 60°02' E 028°39'713.9
2017-Sep-13 22:30N 60°03' E 028°25'714.0
2017-Sep-13 22:00N 60°07' E 028°14'714.1
2017-Sep-13 21:30N 60°09' E 028°01'714.9
2017-Sep-13 21:00N 60°10' E 027°46'815.9
2017-Sep-13 20:30N 60°06' E 027°32'815.8
2017-Sep-13 20:00N 60°02' E 027°19'816.2
2017-Sep-13 19:30N 59°58' E 027°05'816.0
2017-Sep-13 19:00N 59°59' E 026°49'815.8
2017-Sep-13 18:30N 59°59' E 026°33'815.8
2017-Sep-13 18:00N 59°57' E 026°18'3415.8
2017-Sep-13 15:51N 59°47' E 025°13'615.3
2017-Sep-13 15:29N 59°45' E 025°02'715.3
2017-Sep-13 15:00N 59°42' E 024°49'714.9
2017-Sep-13 14:30N 59°36' E 024°41'714.2
2017-Sep-13 14:00N 59°29' E 024°46'2 4.0
2017-Sep-13 13:28N 59°27' E 024°46'0 0.0
2017-Sep-13 12:58N 59°27' E 024°46'0 0.0
2017-Sep-13 12:28N 59°27' E 024°46'0 0.0
2017-Sep-13 11:58N 59°27' E 024°46'0 0.0
2017-Sep-13 11:28N 59°27' E 024°46'0 0.0
2017-Sep-13 10:58N 59°27' E 024°46'0 0.0
2017-Sep-13 10:28N 59°27' E 024°46'0 0.0
2017-Sep-13 09:58N 59°27' E 024°46'0 0.0
2017-Sep-13 09:28N 59°27' E 024°46'0 0.0
2017-Sep-13 08:58N 59°27' E 024°46'0 0.0
2017-Sep-13 08:28N 59°27' E 024°46'0 0.0
2017-Sep-13 07:58N 59°27' E 024°46'0 0.0
2017-Sep-13 07:28N 59°27' E 024°46'0 0.0
2017-Sep-13 06:58N 59°27' E 024°46'0 0.0
2017-Sep-13 06:28N 59°27' E 024°46'0 0.0
2017-Sep-13 05:58N 59°27' E 024°46'0 0.0
2017-Sep-13 05:28N 59°27' E 024°46'0 0.1
2017-Sep-13 05:00N 59°27' E 024°46'4 7.1
2017-Sep-13 04:31N 59°30' E 024°44'714.3
2017-Sep-13 04:01N 59°37' E 024°38'613.0
2017-Sep-13 03:30N 59°38' E 024°25'1014.2
2017-Sep-13 02:48N 59°36' E 024°06'515.2
2017-Sep-13 02:27N 59°34' E 023°56'814.8
2017-Sep-13 01:53N 59°31' E 023°41'615.2
2017-Sep-13 01:28N 59°29' E 023°29'815.4
2017-Sep-13 00:57N 59°27' E 023°14'28716.6
2017-Sep-12 07:39N 56°05' E 016°51'319.1
2017-Sep-12 07:30N 56°03' E 016°47'1019.2
2017-Sep-12 07:00N 55°58' E 016°33'919.2
2017-Sep-12 06:31N 55°53' E 016°19'1019.1
2017-Sep-12 06:01N 55°48' E 016°04'1019.2
2017-Sep-12 05:31N 55°43' E 015°49'1019.5
2017-Sep-12 05:00N 55°39' E 015°33'1019.3
2017-Sep-12 04:30N 55°35' E 015°18'1019.2
2017-Sep-12 04:01N 55°31' E 015°02'1019.3
2017-Sep-12 03:30N 55°27' E 014°47'1019.2
2017-Sep-12 03:01N 55°20' E 014°35'1019.1
2017-Sep-12 02:31N 55°12' E 014°25'919.0
2017-Sep-12 02:01N 55°05' E 014°15'1018.9
2017-Sep-12 01:30N 54°59' E 014°02'919.2
2017-Sep-12 01:01N 54°57' E 013°46'1919.1
2017-Sep-12 00:00N 54°51' E 013°14'919.1
2017-Sep-11 23:31N 54°49' E 012°58'918.4
2017-Sep-11 23:00N 54°46' E 012°43'4115.3
2017-Sep-11 20:19N 54°11' E 012°06'0 0.0
2017-Sep-11 04:14N 54°10' E 012°06'0 0.3
2017-Sep-11 04:00N 54°10' E 012°06'1 1.9
2017-Sep-11 03:30N 54°10' E 012°06'2713.4
2017-Sep-11 01:28N 54°28' E 011°32'919.1
2017-Sep-11 01:01N 54°33' E 011°19'1020.2
2017-Sep-11 00:31N 54°37' E 011°04'918.7
2017-Sep-11 00:01N 54°43' E 010°51'917.7
2017-Sep-10 23:31N 54°52' E 010°52'917.2
2017-Sep-10 23:00N 54°59' E 011°00'1019.2
2017-Sep-10 22:31N 55°09' E 011°03'917.7
2017-Sep-10 21:59N 55°18' E 011°02'6314.8
2017-Sep-10 17:45N 56°11' E 012°02'520.6
2017-Sep-10 17:30N 56°12' E 012°11'1019.9
2017-Sep-10 17:01N 56°09' E 012°28'1020.2
2017-Sep-10 16:30N 56°02' E 012°40'918.5
2017-Sep-10 16:01N 55°53' E 012°44'918.7
2017-Sep-10 15:30N 55°44' E 012°40'2 3.4
2017-Sep-10 14:58N 55°43' E 012°37'0 0.0
2017-Sep-10 13:58N 55°43' E 012°37'0 0.0
2017-Sep-10 13:28N 55°43' E 012°37'0 0.0
2017-Sep-10 12:58N 55°43' E 012°37'0 0.0
2017-Sep-10 12:28N 55°43' E 012°37'0 0.0
2017-Sep-10 11:58N 55°43' E 012°37'0 0.0
2017-Sep-10 11:28N 55°43' E 012°37'0 0.0
2017-Sep-10 10:58N 55°43' E 012°37'0 0.0
2017-Sep-10 10:28N 55°43' E 012°37'0 0.0
2017-Sep-10 09:58N 55°43' E 012°37'0 0.0
2017-Sep-10 09:28N 55°43' E 012°37'0 0.0
2017-Sep-10 08:59N 55°43' E 012°37'0 0.0
2017-Sep-10 08:30N 55°43' E 012°37'0 0.0
2017-Sep-10 08:00N 55°43' E 012°37'0 0.0
2017-Sep-10 07:29N 55°43' E 012°37'0 0.0
2017-Sep-10 07:01N 55°43' E 012°37'0 0.0
2017-Sep-10 06:30N 55°43' E 012°37'0 0.0
2017-Sep-10 06:01N 55°43' E 012°37'0 0.0
2017-Sep-10 05:31N 55°43' E 012°37'0 0.0
2017-Sep-10 05:01N 55°43' E 012°37'0 0.0
2017-Sep-10 04:31N 55°43' E 012°37'0 0.0
2017-Sep-10 04:00N 55°43' E 012°37'1 1.1
2017-Sep-10 03:30N 55°43' E 012°38'3 6.8
2017-Sep-10 03:00N 55°46' E 012°41'713.2
2017-Sep-10 02:31N 55°53' E 012°40'713.0
2017-Sep-10 02:01N 55°59' E 012°41'714.9
2017-Sep-10 01:31N 56°06' E 012°34'816.2
2017-Sep-10 01:00N 56°10' E 012°21'  
Track history (hours):
 
Tides and Currents Weather Stations Pressure Air Temp Water Temp Dewpoint Dewpoint Depression Visibility Wind Speed Wind Dir Waves Ship Positions

Norwegian Getaway

Last reported at 2017-Sep-20 00:31 UTC. Time now 2017-Sep-20 00:34 UTC.
Position N 54°55' E 010°53'.

Length 326 m; draft 8.7 m.

Type: Passenger vessel. MMSI: 311050900.

Date/timePositionNaut miles runAvg speedWind from/ knotsBaromVisibWave heightAir tempDewpointWater temp
2017-Sep-20 00:31N 54°55' E 010°53'917.1
2017-Sep-20 00:00N 55°02' E 011°01'918.0
2017-Sep-19 23:30N 55°11' E 011°04'816.1
2017-Sep-19 22:59N 55°19' E 011°02'6113.2
2017-Sep-19 18:23N 56°10' E 011°59'718.1
2017-Sep-19 18:00N 56°12' E 012°11'917.1
2017-Sep-19 17:28N 56°10' E 012°27'918.7
2017-Sep-19 17:01N 56°04' E 012°38'917.4
2017-Sep-19 16:30N 55°56' E 012°44'917.9
2017-Sep-19 16:01N 55°47' E 012°42'5 9.8
2017-Sep-19 15:30N 55°43' E 012°37'0 0.3
2017-Sep-19 15:00N 55°43' E 012°37'0 0.0
2017-Sep-19 14:30N 55°43' E 012°37'0 0.0
2017-Sep-19 13:59N 55°43' E 012°37'0 0.0
2017-Sep-19 13:29N 55°43' E 012°37'0 0.0
2017-Sep-19 12:59N 55°43' E 012°37'0 0.0
2017-Sep-19 12:28N 55°43' E 012°37'0 0.0
2017-Sep-19 11:58N 55°43' E 012°37'0 0.0
2017-Sep-19 11:28N 55°43' E 012°37'0 0.0
2017-Sep-19 10:58N 55°43' E 012°37'0 0.0
2017-Sep-19 10:28N 55°43' E 012°37'0 0.0
2017-Sep-19 09:59N 55°43' E 012°37'0 0.0
2017-Sep-19 09:30N 55°43' E 012°37'0 0.0
2017-Sep-19 09:00N 55°43' E 012°37'0 0.0
2017-Sep-19 08:30N 55°43' E 012°37'0 0.0
2017-Sep-19 08:00N 55°43' E 012°37'0 0.0
2017-Sep-19 07:30N 55°43' E 012°37'0 0.0
2017-Sep-19 07:00N 55°43' E 012°37'0 0.0
2017-Sep-19 06:30N 55°43' E 012°37'0 0.0
2017-Sep-19 06:00N 55°43' E 012°37'0 0.0
2017-Sep-19 05:30N 55°43' E 012°37'0 0.0
2017-Sep-19 05:00N 55°43' E 012°37'0 0.0
2017-Sep-19 04:30N 55°43' E 012°37'0 0.0
2017-Sep-19 03:59N 55°43' E 012°37'0 0.6
2017-Sep-19 03:30N 55°43' E 012°38'4 7.1
2017-Sep-19 03:01N 55°46' E 012°41'714.0
2017-Sep-19 02:31N 55°53' E 012°39'714.3
2017-Sep-19 02:01N 56°00' E 012°40'612.9
2017-Sep-19 01:30N 56°06' E 012°34'714.4
2017-Sep-19 01:00N 56°10' E 012°24'6511.6
2017-Sep-18 19:26N 55°28' E 010°55'815.5
2017-Sep-18 18:56N 55°22' E 011°02'715.5
2017-Sep-18 18:29N 55°15' E 011°05'715.0
2017-Sep-18 17:59N 55°07' E 011°03'816.0
2017-Sep-18 17:30N 54°60' E 011°02'816.2
2017-Sep-18 17:01N 54°53' E 010°53'816.1
2017-Sep-18 16:31N 54°45' E 010°53'714.3
2017-Sep-18 16:01N 54°40' E 010°60'816.2
2017-Sep-18 15:31N 54°36' E 011°12'816.3
2017-Sep-18 15:00N 54°32' E 011°24'815.6
2017-Sep-18 14:30N 54°28' E 011°37'815.4
2017-Sep-18 14:01N 54°27' E 011°50'815.6
2017-Sep-18 13:30N 54°26' E 012°03'4314.7
2017-Sep-18 10:34N 54°52' E 013°03'3816.4
2017-Sep-18 08:16N 55°05' E 014°05'519.3
2017-Sep-18 08:00N 55°09' E 014°11'919.2
2017-Sep-18 07:30N 55°16' E 014°21'1019.3
2017-Sep-18 07:00N 55°24' E 014°31'1019.0
2017-Sep-18 06:30N 55°29' E 014°46'1019.3
2017-Sep-18 05:59N 55°33' E 015°01'919.3
2017-Sep-18 05:30N 55°38' E 015°16'1019.3
2017-Sep-18 05:00N 55°43' E 015°31'1019.3
2017-Sep-18 04:30N 55°48' E 015°45'1019.5
2017-Sep-18 04:00N 55°53' E 016°00'1019.7
2017-Sep-18 03:30N 55°58' E 016°15'1019.6
2017-Sep-18 03:01N 56°02' E 016°31'16918.6
2017-Sep-17 17:56N 58°45' E 017°54'715.3
2017-Sep-17 17:27N 58°52' E 018°00'3 7.4
2017-Sep-17 17:00N 58°55' E 017°59'1 1.2
2017-Sep-17 16:28N 58°55' E 017°58'0 0.0
2017-Sep-17 16:00N 58°55' E 017°58'0 0.0
2017-Sep-17 15:30N 58°55' E 017°58'0 0.0
2017-Sep-17 14:58N 58°55' E 017°58'0 0.0
2017-Sep-17 14:28N 58°55' E 017°58'0 0.0
2017-Sep-17 14:00N 58°55' E 017°58'0 0.0
2017-Sep-17 13:30N 58°55' E 017°58'0 0.0
2017-Sep-17 12:59N 58°55' E 017°58'0 0.0
2017-Sep-17 12:28N 58°55' E 017°58'0 0.0
2017-Sep-17 11:58N 58°55' E 017°58'0 0.0
2017-Sep-17 11:28N 58°55' E 017°58'0 0.0
2017-Sep-17 10:59N 58°55' E 017°58'0 0.0
2017-Sep-17 10:29N 58°55' E 017°58'0 0.0
2017-Sep-17 09:59N 58°55' E 017°58'0 0.0
2017-Sep-17 09:29N 58°55' E 017°58'0 0.0
2017-Sep-17 08:59N 58°55' E 017°58'0 0.0
2017-Sep-17 08:29N 58°55' E 017°58'0 0.0
2017-Sep-17 07:58N 58°55' E 017°58'0 0.0
2017-Sep-17 07:28N 58°55' E 017°58'0 0.0
2017-Sep-17 06:55N 58°55' E 017°58'0 0.0
2017-Sep-17 06:28N 58°55' E 017°58'0 0.0
2017-Sep-17 05:58N 58°55' E 017°58'0 0.0
2017-Sep-17 05:28N 58°55' E 017°58'0 0.0
2017-Sep-17 04:58N 58°55' E 017°58'0 0.0
2017-Sep-17 04:31N 58°55' E 017°58'1 2.3
2017-Sep-17 04:01N 58°55' E 017°60'5 9.6
2017-Sep-17 03:30N 58°51' E 018°04'711.8
2017-Sep-17 02:57N 58°45' E 018°11'714.1
2017-Sep-17 02:27N 58°46' E 018°24'10015.9
2017-Sep-16 20:13N 59°17' E 021°27'5318.5
2017-Sep-16 17:21N 59°36' E 023°05'618.0
2017-Sep-16 17:00N 59°37' E 023°17'917.7
2017-Sep-16 16:30N 59°40' E 023°34'917.9
2017-Sep-16 16:00N 59°43' E 023°51'1117.9
2017-Sep-16 15:24N 59°46' E 024°11'717.7
2017-Sep-16 15:01N 59°48' E 024°24'55 3.7
2017-Sep-16 00:14N 59°59' E 026°12'417.6
2017-Sep-16 00:00N 59°60' E 026°20'917.4
2017-Sep-15 23:30N 60°01' E 026°37'917.8
2017-Sep-15 23:00N 59°60' E 026°55'917.1
2017-Sep-15 22:30N 60°02' E 027°12'917.9
2017-Sep-15 22:00N 60°07' E 027°26'917.9
2017-Sep-15 21:30N 60°11' E 027°42'817.0
2017-Sep-15 21:00N 60°10' E 027°59'918.0
2017-Sep-15 20:31N 60°08' E 028°16'917.7
2017-Sep-15 20:00N 60°03' E 028°31'917.8
2017-Sep-15 19:30N 60°03' E 028°49'2016.0
2017-Sep-15 18:17N 60°02' E 029°28'910.2
2017-Sep-15 17:23N 59°59' E 029°46'610.6
2017-Sep-15 16:51N 59°56' E 029°56'410.2
2017-Sep-15 16:30N 59°56' E 030°03'4 8.0
2017-Sep-15 16:00N 59°57' E 030°11'0 0.1
2017-Sep-15 15:22N 59°57' E 030°11'0 0.0
2017-Sep-15 14:58N 59°57' E 030°11'0 0.0
2017-Sep-15 14:30N 59°57' E 030°11'0 0.0
2017-Sep-15 13:59N 59°57' E 030°11'0 0.0
2017-Sep-15 13:28N 59°57' E 030°11'0 0.0
2017-Sep-15 12:58N 59°57' E 030°11'0 0.0
2017-Sep-15 12:28N 59°57' E 030°11'0 0.0
2017-Sep-15 11:58N 59°57' E 030°11'0 0.0
2017-Sep-15 11:28N 59°57' E 030°11'0 0.0
2017-Sep-15 11:00N 59°57' E 030°11'0 0.0
2017-Sep-15 10:29N 59°57' E 030°11'0 0.0
2017-Sep-15 09:59N 59°57' E 030°11'0 0.0
2017-Sep-15 09:25N 59°57' E 030°11'0 0.0
2017-Sep-15 08:58N 59°57' E 030°11'0 0.0
2017-Sep-15 08:28N 59°57' E 030°11'0 0.0
2017-Sep-15 07:58N 59°57' E 030°11'0 0.0
2017-Sep-15 07:30N 59°57' E 030°11'0 0.0
2017-Sep-15 07:00N 59°57' E 030°11'0 0.0
2017-Sep-15 06:29N 59°57' E 030°11'0 0.0
2017-Sep-15 05:59N 59°57' E 030°11'0 0.0
2017-Sep-15 05:29N 59°57' E 030°11'0 0.0
2017-Sep-15 04:59N 59°57' E 030°11'0 0.0
2017-Sep-15 04:29N 59°57' E 030°11'0 0.0
2017-Sep-15 03:58N 59°57' E 030°11'0 0.0
2017-Sep-15 03:25N 59°57' E 030°11'0 0.0
2017-Sep-15 02:58N 59°57' E 030°11'0 0.0
2017-Sep-15 02:30N 59°57' E 030°11'0 0.0
2017-Sep-15 02:00N 59°57' E 030°11'0 0.0
2017-Sep-15 01:30N 59°57' E 030°11'0 0.0
2017-Sep-15 01:00N 59°57' E 030°11'0 0.0
2017-Sep-15 00:27N 59°57' E 030°11'0 0.0
2017-Sep-15 00:00N 59°57' E 030°11'0 0.0
2017-Sep-14 23:30N 59°57' E 030°11'0 0.0
2017-Sep-14 23:00N 59°57' E 030°11'0 0.0
2017-Sep-14 22:30N 59°57' E 030°11'0 0.0
2017-Sep-14 22:00N 59°57' E 030°11'0 0.0
2017-Sep-14 21:30N 59°57' E 030°11'0 0.0
2017-Sep-14 21:00N 59°57' E 030°11'0 0.0
2017-Sep-14 20:30N 59°57' E 030°11'0 0.0
2017-Sep-14 19:57N 59°57' E 030°11'0 0.0
2017-Sep-14 19:30N 59°57' E 030°11'0 0.0
2017-Sep-14 18:57N 59°57' E 030°11'0 0.0
2017-Sep-14 18:30N 59°57' E 030°11'0 0.0
2017-Sep-14 18:00N 59°57' E 030°11'0 0.0
2017-Sep-14 17:25N 59°57' E 030°11'0 0.0
2017-Sep-14 16:58N 59°57' E 030°11'0 0.0
2017-Sep-14 16:30N 59°57' E 030°11'0 0.0
2017-Sep-14 16:00N 59°57' E 030°11'0 0.0
2017-Sep-14 15:30N 59°57' E 030°11'0 0.0
2017-Sep-14 14:54N 59°57' E 030°11'0 0.0
2017-Sep-14 14:30N 59°57' E 030°11'0 0.0
2017-Sep-14 13:56N 59°57' E 030°11'0 0.0
2017-Sep-14 13:26N 59°57' E 030°11'0 0.0
2017-Sep-14 12:58N 59°57' E 030°11'0 0.0
2017-Sep-14 12:30N 59°57' E 030°11'0 0.0
2017-Sep-14 12:00N 59°57' E 030°11'0 0.0
2017-Sep-14 11:30N 59°57' E 030°11'0 0.0
2017-Sep-14 10:59N 59°57' E 030°11'0 0.0
2017-Sep-14 10:28N 59°57' E 030°11'0 0.0
2017-Sep-14 09:58N 59°57' E 030°11'0 0.0
2017-Sep-14 09:30N 59°57' E 030°11'0 0.0
2017-Sep-14 08:57N 59°57' E 030°11'0 0.0
2017-Sep-14 08:27N 59°57' E 030°11'0 0.0
2017-Sep-14 08:00N 59°57' E 030°11'0 0.0
2017-Sep-14 07:30N 59°57' E 030°11'0 0.0
2017-Sep-14 06:58N 59°57' E 030°11'0 0.0
2017-Sep-14 06:29N 59°57' E 030°11'0 0.0
2017-Sep-14 05:58N 59°57' E 030°11'0 0.0
2017-Sep-14 05:28N 59°57' E 030°11'0 0.0
2017-Sep-14 04:58N 59°57' E 030°11'0 0.0
2017-Sep-14 04:31N 59°57' E 030°11'0 0.0
2017-Sep-14 03:58N 59°57' E 030°11'0 0.0
2017-Sep-14 03:30N 59°57' E 030°11'1 1.6
2017-Sep-14 03:00N 59°57' E 030°09'5 9.5
2017-Sep-14 02:30N 59°55' E 030°01'611.4
2017-Sep-14 02:00N 59°57' E 029°50'5 9.1
2017-Sep-14 01:30N 59°59' E 029°42'611.6
2017-Sep-14 01:00N 60°01' E 029°31'510.5
2017-Sep-14 00:30N 60°02' E 029°20'713.6
2017-Sep-14 00:00N 60°02' E 029°07'713.7
2017-Sep-13 23:30N 60°02' E 028°53'713.8
2017-Sep-13 23:00N 60°02' E 028°39'713.9
2017-Sep-13 22:30N 60°03' E 028°25'714.0
2017-Sep-13 22:00N 60°07' E 028°14'714.1
2017-Sep-13 21:30N 60°09' E 028°01'714.9
2017-Sep-13 21:00N 60°10' E 027°46'815.9
2017-Sep-13 20:30N 60°06' E 027°32'815.8
2017-Sep-13 20:00N 60°02' E 027°19'816.2
2017-Sep-13 19:30N 59°58' E 027°05'816.0
2017-Sep-13 19:00N 59°59' E 026°49'815.8
2017-Sep-13 18:30N 59°59' E 026°33'815.8
2017-Sep-13 18:00N 59°57' E 026°18'3415.8
2017-Sep-13 15:51N 59°47' E 025°13'615.3
2017-Sep-13 15:29N 59°45' E 025°02'715.3
2017-Sep-13 15:00N 59°42' E 024°49'714.9
2017-Sep-13 14:30N 59°36' E 024°41'714.2
2017-Sep-13 14:00N 59°29' E 024°46'2 4.0
2017-Sep-13 13:28N 59°27' E 024°46'0 0.0
2017-Sep-13 12:58N 59°27' E 024°46'0 0.0
2017-Sep-13 12:28N 59°27' E 024°46'0 0.0
2017-Sep-13 11:58N 59°27' E 024°46'0 0.0
2017-Sep-13 11:28N 59°27' E 024°46'0 0.0
2017-Sep-13 10:58N 59°27' E 024°46'0 0.0
2017-Sep-13 10:28N 59°27' E 024°46'0 0.0
2017-Sep-13 09:58N 59°27' E 024°46'0 0.0
2017-Sep-13 09:28N 59°27' E 024°46'0 0.0
2017-Sep-13 08:58N 59°27' E 024°46'0 0.0
2017-Sep-13 08:28N 59°27' E 024°46'0 0.0
2017-Sep-13 07:58N 59°27' E 024°46'0 0.0
2017-Sep-13 07:28N 59°27' E 024°46'0 0.0
2017-Sep-13 06:58N 59°27' E 024°46'0 0.0
2017-Sep-13 06:28N 59°27' E 024°46'0 0.0
2017-Sep-13 05:58N 59°27' E 024°46'0 0.0
2017-Sep-13 05:28N 59°27' E 024°46'0 0.1
2017-Sep-13 05:00N 59°27' E 024°46'4 7.1
2017-Sep-13 04:31N 59°30' E 024°44'714.3
2017-Sep-13 04:01N 59°37' E 024°38'613.0
2017-Sep-13 03:30N 59°38' E 024°25'1014.2
2017-Sep-13 02:48N 59°36' E 024°06'515.2
2017-Sep-13 02:27N 59°34' E 023°56'814.8
2017-Sep-13 01:53N 59°31' E 023°41'615.2
2017-Sep-13 01:28N 59°29' E 023°29'815.4
2017-Sep-13 00:57N 59°27' E 023°14'28716.6
2017-Sep-12 07:39N 56°05' E 016°51'319.1
2017-Sep-12 07:30N 56°03' E 016°47'1019.2
2017-Sep-12 07:00N 55°58' E 016°33'919.2
2017-Sep-12 06:31N 55°53' E 016°19'1019.1
2017-Sep-12 06:01N 55°48' E 016°04'1019.2
2017-Sep-12 05:31N 55°43' E 015°49'1019.5
2017-Sep-12 05:00N 55°39' E 015°33'1019.3
2017-Sep-12 04:30N 55°35' E 015°18'1019.2
2017-Sep-12 04:01N 55°31' E 015°02'1019.3
2017-Sep-12 03:30N 55°27' E 014°47'1019.2
2017-Sep-12 03:01N 55°20' E 014°35'1019.1
2017-Sep-12 02:31N 55°12' E 014°25'919.0
2017-Sep-12 02:01N 55°05' E 014°15'1018.9
2017-Sep-12 01:30N 54°59' E 014°02'919.2
2017-Sep-12 01:01N 54°57' E 013°46'1919.1
2017-Sep-12 00:00N 54°51' E 013°14'919.1
2017-Sep-11 23:31N 54°49' E 012°58'918.4
2017-Sep-11 23:00N 54°46' E 012°43'4115.3
2017-Sep-11 20:19N 54°11' E 012°06'0 0.0
2017-Sep-11 04:14N 54°10' E 012°06'0 0.3
2017-Sep-11 04:00N 54°10' E 012°06'1 1.9
2017-Sep-11 03:30N 54°10' E 012°06'2713.4
2017-Sep-11 01:28N 54°28' E 011°32'919.1
2017-Sep-11 01:01N 54°33' E 011°19'1020.2
2017-Sep-11 00:31N 54°37' E 011°04'918.7
2017-Sep-11 00:01N 54°43' E 010°51'917.7
2017-Sep-10 23:31N 54°52' E 010°52'917.2
2017-Sep-10 23:00N 54°59' E 011°00'1019.2
2017-Sep-10 22:31N 55°09' E 011°03'917.7
2017-Sep-10 21:59N 55°18' E 011°02'6314.8
2017-Sep-10 17:45N 56°11' E 012°02'520.6
2017-Sep-10 17:30N 56°12' E 012°11'1019.9
2017-Sep-10 17:01N 56°09' E 012°28'1020.2
2017-Sep-10 16:30N 56°02' E 012°40'918.5
2017-Sep-10 16:01N 55°53' E 012°44'918.7
2017-Sep-10 15:30N 55°44' E 012°40'2 3.4
2017-Sep-10 14:58N 55°43' E 012°37'0 0.0
2017-Sep-10 13:58N 55°43' E 012°37'0 0.0
2017-Sep-10 13:28N 55°43' E 012°37'0 0.0
2017-Sep-10 12:58N 55°43' E 012°37'0 0.0
2017-Sep-10 12:28N 55°43' E 012°37'0 0.0
2017-Sep-10 11:58N 55°43' E 012°37'0 0.0
2017-Sep-10 11:28N 55°43' E 012°37'0 0.0
2017-Sep-10 10:58N 55°43' E 012°37'0 0.0
2017-Sep-10 10:28N 55°43' E 012°37'0 0.0
2017-Sep-10 09:58N 55°43' E 012°37'0 0.0
2017-Sep-10 09:28N 55°43' E 012°37'0 0.0
2017-Sep-10 08:59N 55°43' E 012°37'0 0.0
2017-Sep-10 08:30N 55°43' E 012°37'0 0.0
2017-Sep-10 08:00N 55°43' E 012°37'0 0.0
2017-Sep-10 07:29N 55°43' E 012°37'0 0.0
2017-Sep-10 07:01N 55°43' E 012°37'0 0.0
2017-Sep-10 06:30N 55°43' E 012°37'0 0.0
2017-Sep-10 06:01N 55°43' E 012°37'0 0.0
2017-Sep-10 05:31N 55°43' E 012°37'0 0.0
2017-Sep-10 05:01N 55°43' E 012°37'0 0.0
2017-Sep-10 04:31N 55°43' E 012°37'0 0.0
2017-Sep-10 04:00N 55°43' E 012°37'1 1.1
2017-Sep-10 03:30N 55°43' E 012°38'3 6.8
2017-Sep-10 03:00N 55°46' E 012°41'713.2
2017-Sep-10 02:31N 55°53' E 012°40'713.0
2017-Sep-10 02:01N 55°59' E 012°41'714.9
2017-Sep-10 01:31N 56°06' E 012°34'816.2
2017-Sep-10 01:00N 56°10' E 012°21'  

Dump ship's entire track history